Time;durP1;ratioP1;P1;durP2;ratioP2;P2;SDS_P1;SDS_P2;PMS_P1;PMS_P2;Temp;Humidity;BMP_temperature;BMP_pressure;BME280_temperature;BME280_humidity;BME280_pressure;Samples;Min_cycle;Max_cycle;Signal;HPM_P1;HPM_P2
2023/11/02 00:01:08;;;;;;;2.10;1.90;;;;;;;;;;5031505;28;20418;-80
2023/11/02 00:03:35;;;;;;;2.72;2.20;;;;;;;;;;5048664;28;20722;-80
2023/11/02 00:06:20;;;;;;;2.30;2.10;;;;;;;;;;5030520;28;20376;-80
2023/11/02 00:09:05;;;;;;;2.78;2.13;;;;;;;;;;5034425;28;20449;-80
2023/11/02 00:11:50;;;;;;;2.05;1.90;;;;;;;;;;5049639;28;20391;-80
2023/11/02 00:14:19;;;;;;;2.53;2.03;;;;;;;;;;5049516;28;20383;-80
2023/11/02 00:16:46;;;;;;;2.63;2.30;;;;;;;;;;5049385;28;20753;-79
2023/11/02 00:19:26;;;;;;;2.50;1.90;;;;;;;;;;5032200;28;20395;-80
2023/11/02 00:21:52;;;;;;;2.17;1.98;;;;;;;;;;5031463;28;20394;-80
2023/11/02 00:24:18;;;;;;;2.30;2.10;;;;;;;;;;5045488;28;20387;-80
2023/11/02 00:26:44;;;;;;;3.15;2.10;;;;;;;;;;5045196;28;20441;-80
2023/11/02 00:29:10;;;;;;;2.22;2.03;;;;;;;;;;5030275;28;20518;-80
2023/11/02 00:31:37;;;;;;;3.25;1.83;;;;;;;;;;5048984;28;20910;-80
2023/11/02 00:34:03;;;;;;;2.13;1.90;;;;;;;;;;5049305;28;20391;-80
2023/11/02 00:36:32;;;;;;;2.20;2.00;;;;;;;;;;5048896;28;20379;-80
2023/11/02 00:38:58;;;;;;;2.15;1.90;;;;;;;;;;5049017;28;20394;-80
2023/11/02 00:41:24;;;;;;;2.50;2.05;;;;;;;;;;5048449;28;20375;-80
2023/11/02 00:43:50;;;;;;;3.07;2.20;;;;;;;;;;5048676;28;20419;-80
2023/11/02 00:46:16;;;;;;;2.25;2.05;;;;;;;;;;5031702;28;20402;-80
2023/11/02 00:48:44;;;;;;;3.00;1.92;;;;;;;;;;5040489;28;20423;-80
2023/11/02 00:51:19;;;;;;;2.30;2.10;;;;;;;;;;5048804;28;20382;-80
2023/11/02 00:53:46;;;;;;;2.35;2.15;;;;;;;;;;5031524;28;20406;-80
2023/11/02 00:56:12;;;;;;;2.10;1.90;;;;;;;;;;5048631;28;20387;-80
2023/11/02 00:58:44;;;;;;;2.60;2.00;;;;;;;;;;5038097;28;20399;-80
2023/11/02 01:01:12;;;;;;;2.40;2.15;;;;;;;;;;5047120;28;20476;-80
2023/11/02 01:03:38;;;;;;;1.80;1.67;;;;;;;;;;5034839;28;20376;-80
2023/11/02 01:06:06;;;;;;;2.13;1.92;;;;;;;;;;5048494;28;20390;-81
2023/11/02 01:08:33;;;;;;;2.75;2.00;;;;;;;;;;5031526;28;20419;-80
2023/11/02 01:10:59;;;;;;;3.00;2.20;;;;;;;;;;5029384;28;20410;-79
2023/11/02 01:13:27;;;;;;;2.05;1.60;;;;;;;;;;5048391;28;20423;-80
2023/11/02 01:16:07;;;;;;;2.65;1.70;;;;;;;;;;5029768;28;20399;-80
2023/11/02 01:18:34;;;;;;;2.13;1.70;;;;;;;;;;5047457;28;20729;-80
2023/11/02 01:21:03;;;;;;;2.33;1.92;;;;;;;;;;5048511;28;20379;-80
2023/11/02 01:23:30;;;;;;;2.20;2.00;;;;;;;;;;5048513;28;20379;-80
2023/11/02 01:25:57;;;;;;;2.03;1.83;;;;;;;;;;5048555;28;20383;-80
2023/11/02 01:28:24;;;;;;;2.00;1.70;;;;;;;;;;5048666;28;20943;-79
2023/11/02 01:31:10;;;;;;;2.45;1.95;;;;;;;;;;5044103;28;20402;-80
2023/11/02 01:33:37;;;;;;;2.00;1.80;;;;;;;;;;5048210;28;20390;-80
2023/11/02 01:36:03;;;;;;;1.92;1.75;;;;;;;;;;5048696;28;20390;-80
2023/11/02 01:38:33;;;;;;;2.72;1.83;;;;;;;;;;5047674;28;20434;-80
2023/11/02 01:41:14;;;;;;;3.00;1.85;;;;;;;;;;5048164;28;20390;-80
2023/11/02 01:43:54;;;;;;;3.72;1.80;;;;;;;;;;5030668;28;20395;-80
2023/11/02 01:46:32;;;;;;;2.20;1.90;;;;;;;;;;5048226;28;20714;-80
2023/11/02 01:49:07;;;;;;;2.80;2.08;;;;;;;;;;5038960;28;20416;-81
2023/11/02 01:51:45;;;;;;;2.60;1.92;;;;;;;;;;5048779;28;20460;-80
2023/11/02 01:54:23;;;;;;;2.10;1.90;;;;;;;;;;5049181;28;20859;-80
2023/11/02 01:57:03;;;;;;;2.22;1.73;;;;;;;;;;5048711;28;20394;-80
2023/11/02 01:59:42;;;;;;;3.17;1.80;;;;;;;;;;5047910;28;20387;-80
2023/11/02 02:02:10;;;;;;;2.22;2.03;;;;;;;;;;5031399;28;20401;-80
2023/11/02 02:04:42;;;;;;;1.85;1.75;;;;;;;;;;5048628;28;20387;-80
2023/11/02 02:07:18;;;;;;;2.30;2.10;;;;;;;;;;5047785;28;20417;-80
2023/11/02 02:09:51;;;;;;;2.30;1.67;;;;;;;;;;5047972;28;20402;-80
2023/11/02 02:12:26;;;;;;;1.60;1.50;;;;;;;;;;5045733;28;20454;-80
2023/11/02 02:14:58;;;;;;;3.20;1.67;;;;;;;;;;5047856;28;20478;-80
2023/11/02 02:17:32;;;;;;;2.00;1.80;;;;;;;;;;5030874;28;20453;-80
2023/11/02 02:20:05;;;;;;;2.17;1.97;;;;;;;;;;5028384;28;20419;-80
2023/11/02 02:22:34;;;;;;;2.50;2.00;;;;;;;;;;5048135;28;20469;-80
2023/11/02 02:25:13;;;;;;;2.20;1.70;;;;;;;;;;5047833;28;20375;-80
2023/11/02 02:27:48;;;;;;;1.85;1.73;;;;;;;;;;5030223;28;20410;-80
2023/11/02 02:30:23;;;;;;;2.20;1.60;;;;;;;;;;5049101;28;20383;-80
2023/11/02 02:33:04;;;;;;;2.75;1.70;;;;;;;;;;5033603;28;20391;-80
2023/11/02 02:35:41;;;;;;;2.28;2.00;;;;;;;;;;5032996;28;20387;-80
2023/11/02 02:38:11;;;;;;;3.67;2.70;;;;;;;;;;5033894;28;20403;-80
2023/11/02 02:40:44;;;;;;;2.70;2.50;;;;;;;;;;5032899;28;20383;-80
2023/11/02 02:43:11;;;;;;;2.92;2.63;;;;;;;;;;5051298;28;20390;-80
2023/11/02 02:45:39;;;;;;;3.00;2.80;;;;;;;;;;5033992;28;20387;-80
2023/11/02 02:48:06;;;;;;;3.30;3.00;;;;;;;;;;5047535;28;20836;-80
2023/11/02 02:50:35;;;;;;;3.47;3.17;;;;;;;;;;5046016;28;20759;-80
2023/11/02 02:53:02;;;;;;;3.67;3.38;;;;;;;;;;5051138;28;20391;-80
2023/11/02 02:55:28;;;;;;;4.55;4.10;;;;;;;;;;5050597;28;20466;-80
2023/11/02 02:57:59;;;;;;;4.00;3.60;;;;;;;;;;5033134;28;20388;-80
2023/11/02 03:00:27;;;;;;;6.30;5.70;;;;;;;;;;5049711;28;20386;-80
2023/11/02 03:02:54;;;;;;;7.40;6.80;;;;;;;;;;5049601;28;20382;-81
2023/11/02 03:05:20;;;;;;;8.10;7.40;;;;;;;;;;5033325;28;20725;-80
2023/11/02 03:07:51;;;;;;;6.85;6.35;;;;;;;;;;5038043;28;20481;-80
2023/11/02 03:10:18;;;;;;;5.88;5.38;;;;;;;;;;5041159;28;21013;-80
2023/11/02 03:12:47;;;;;;;5.45;4.95;;;;;;;;;;5039545;28;20466;-80
2023/11/02 03:15:15;;;;;;;5.70;5.20;;;;;;;;;;5048765;28;20387;-80
2023/11/02 03:17:49;;;;;;;4.82;4.43;;;;;;;;;;5036430;28;20898;-79
2023/11/02 03:20:16;;;;;;;5.13;4.68;;;;;;;;;;5041901;28;20387;-80
2023/11/02 03:22:42;;;;;;;6.07;4.97;;;;;;;;;;5040857;28;20387;-80
2023/11/02 03:25:09;;;;;;;5.68;5.18;;;;;;;;;;5040483;28;20403;-80
2023/11/02 03:27:55;;;;;;;5.50;4.90;;;;;;;;;;5016267;28;20422;-80
2023/11/02 03:30:44;;;;;;;5.03;4.60;;;;;;;;;;5036231;28;20397;-80
2023/11/02 03:33:10;;;;;;;4.68;4.28;;;;;;;;;;5041136;28;20463;-80
2023/11/02 03:35:42;;;;;;;5.28;4.78;;;;;;;;;;5049544;28;20379;-80
2023/11/02 03:38:14;;;;;;;6.05;5.55;;;;;;;;;;5033185;28;20388;-80
2023/11/02 03:40:52;;;;;;;6.15;5.63;;;;;;;;;;5049454;28;20387;-80
2023/11/02 03:43:18;;;;;;;6.70;5.88;;;;;;;;;;5041861;28;20817;-81
2023/11/02 03:45:50;;;;;;;6.57;6.07;;;;;;;;;;5049048;28;20383;-80
2023/11/02 03:48:30;;;;;;;6.40;5.80;;;;;;;;;;5050010;28;20795;-80
2023/11/02 03:50:56;;;;;;;6.30;5.70;;;;;;;;;;5050109;28;20457;-80
2023/11/02 03:53:42;;;;;;;6.30;5.78;;;;;;;;;;5048329;28;20379;-80
2023/11/02 03:56:17;;;;;;;6.07;5.47;;;;;;;;;;5049856;28;20392;-80
2023/11/02 03:58:49;;;;;;;6.70;6.00;;;;;;;;;;5050584;28;20415;-80
2023/11/02 04:01:34;;;;;;;5.95;5.45;;;;;;;;;;5050340;28;20893;-80
2023/11/02 04:04:07;;;;;;;6.65;6.05;;;;;;;;;;5049353;28;20372;-80
2023/11/02 04:06:39;;;;;;;5.47;5.07;;;;;;;;;;5033622;28;20398;-80
2023/11/02 04:09:06;;;;;;;4.88;4.38;;;;;;;;;;5049900;28;20403;-81
2023/11/02 04:11:38;;;;;;;5.28;4.78;;;;;;;;;;5050540;28;20380;-80
2023/11/02 04:14:04;;;;;;;5.60;5.10;;;;;;;;;;5049728;28;20395;-80
2023/11/02 04:16:30;;;;;;;5.63;5.20;;;;;;;;;;5040863;28;20758;-80
2023/11/02 04:18:56;;;;;;;5.30;4.80;;;;;;;;;;5032083;28;20405;-80
2023/11/02 04:21:22;;;;;;;6.00;5.50;;;;;;;;;;5050253;28;20407;-80
2023/11/02 04:23:48;;;;;;;5.50;5.00;;;;;;;;;;5032636;28;20725;-80
2023/11/02 04:26:15;;;;;;;5.50;4.90;;;;;;;;;;5029913;28;20394;-80
2023/11/02 04:28:42;;;;;;;5.53;5.03;;;;;;;;;;5049643;28;20425;-81
2023/11/02 04:31:08;;;;;;;7.68;7.05;;;;;;;;;;5049427;28;20379;-80
2023/11/02 04:33:34;;;;;;;7.28;6.57;;;;;;;;;;5049611;28;20796;-80
2023/11/02 04:36:00;;;;;;;5.83;5.43;;;;;;;;;;5032853;28;20391;-80
2023/11/02 04:38:26;;;;;;;5.82;5.28;;;;;;;;;;5050139;28;20395;-80
2023/11/02 04:40:57;;;;;;;5.40;4.95;;;;;;;;;;5049251;28;20441;-80
2023/11/02 04:43:23;;;;;;;5.55;5.15;;;;;;;;;;5033205;28;20398;-80
2023/11/02 04:45:49;;;;;;;5.30;4.90;;;;;;;;;;5049150;28;20479;-81
2023/11/02 04:48:15;;;;;;;5.20;4.80;;;;;;;;;;5049257;28;20547;-80
2023/11/02 04:50:41;;;;;;;6.60;6.00;;;;;;;;;;5047988;28;20391;-80
2023/11/02 04:53:07;;;;;;;6.38;5.80;;;;;;;;;;5041601;28;20420;-80
2023/11/02 04:55:35;;;;;;;6.72;6.13;;;;;;;;;;5023354;28;20953;-80
2023/11/02 04:58:01;;;;;;;7.53;6.82;;;;;;;;;;5047545;28;20383;-80
2023/11/02 05:00:27;;;;;;;7.97;7.38;;;;;;;;;;5029258;28;20418;-80
2023/11/02 05:02:53;;;;;;;9.35;8.57;;;;;;;;;;5046419;28;20398;-80
2023/11/02 05:05:19;;;;;;;10.13;9.32;;;;;;;;;;5046841;28;20382;-80
2023/11/02 05:07:45;;;;;;;10.90;9.90;;;;;;;;;;5044466;28;20453;-80
2023/11/02 05:10:11;;;;;;;10.98;10.07;;;;;;;;;;5028862;28;20372;-80
2023/11/02 05:12:37;;;;;;;11.27;10.07;;;;;;;;;;5045621;28;20379;-80
2023/11/02 05:15:03;;;;;;;10.23;9.38;;;;;;;;;;5031784;28;20492;-81
2023/11/02 05:17:29;;;;;;;10.83;9.93;;;;;;;;;;5028980;28;20416;-80
2023/11/02 05:19:55;;;;;;;10.27;9.38;;;;;;;;;;5045592;28;20871;-80
2023/11/02 05:22:21;;;;;;;7.93;7.33;;;;;;;;;;5042050;28;20399;-80
2023/11/02 05:24:47;;;;;;;8.30;7.63;;;;;;;;;;5040882;28;20406;-80
2023/11/02 05:27:13;;;;;;;8.52;7.75;;;;;;;;;;5035477;28;20411;-80
2023/11/02 05:29:39;;;;;;;8.23;7.63;;;;;;;;;;5044257;28;20399;-80
2023/11/02 05:32:05;;;;;;;8.13;7.45;;;;;;;;;;5028745;28;20395;-80
2023/11/02 05:34:31;;;;;;;7.82;7.22;;;;;;;;;;5040988;28;20394;-80
2023/11/02 05:36:57;;;;;;;8.32;7.63;;;;;;;;;;5045799;28;20379;-81
2023/11/02 05:39:23;;;;;;;7.95;7.30;;;;;;;;;;5046608;28;20398;-80
2023/11/02 05:41:49;;;;;;;7.80;7.13;;;;;;;;;;5037208;28;20397;-81
2023/11/02 05:44:15;;;;;;;6.75;6.25;;;;;;;;;;5041588;28;20808;-81
2023/11/02 05:46:42;;;;;;;7.28;6.68;;;;;;;;;;5046064;28;20419;-80
2023/11/02 05:49:08;;;;;;;7.20;6.60;;;;;;;;;;5046188;28;20482;-80
2023/11/02 05:51:34;;;;;;;7.07;6.38;;;;;;;;;;5045807;28;20387;-80
2023/11/02 05:54:00;;;;;;;6.80;6.30;;;;;;;;;;5045590;28;20996;-80
2023/11/02 05:56:26;;;;;;;6.07;5.57;;;;;;;;;;5045189;28;20391;-80
2023/11/02 05:58:53;;;;;;;6.63;6.03;;;;;;;;;;5044743;28;20395;-81
2023/11/02 06:01:20;;;;;;;5.45;5.05;;;;;;;;;;5044996;28;20482;-80
2023/11/02 06:03:47;;;;;;;6.28;5.78;;;;;;;;;;5044579;28;20528;-81
2023/11/02 06:06:13;;;;;;;5.90;5.50;;;;;;;;;;5049051;28;20860;-80
2023/11/02 06:08:39;;;;;;;6.20;5.60;;;;;;;;;;5049005;28;20425;-80
2023/11/02 06:11:05;;;;;;;6.20;5.80;;;;;;;;;;5031387;28;20465;-80
2023/11/02 06:13:33;;;;;;;5.65;5.25;;;;;;;;;;5030757;28;21072;-80
2023/11/02 06:15:59;;;;;;;6.00;5.60;;;;;;;;;;5047646;28;20386;-81
2023/11/02 06:18:29;;;;;;;6.30;5.80;;;;;;;;;;5045295;28;20475;-80
2023/11/02 06:20:55;;;;;;;6.38;5.80;;;;;;;;;;5047824;28;20379;-80
2023/11/02 06:23:21;;;;;;;6.20;5.63;;;;;;;;;;5047073;28;20475;-80
2023/11/02 06:25:47;;;;;;;6.53;6.00;;;;;;;;;;5048322;28;20403;-80
2023/11/02 06:28:13;;;;;;;6.20;5.70;;;;;;;;;;5046616;28;20474;-80
2023/11/02 06:30:39;;;;;;;5.60;5.20;;;;;;;;;;5025429;28;20404;-80
2023/11/02 06:33:07;;;;;;;5.75;5.35;;;;;;;;;;5043922;28;20403;-81
2023/11/02 06:35:33;;;;;;;6.25;5.75;;;;;;;;;;5043918;28;20383;-81
2023/11/02 06:38:00;;;;;;;5.88;5.45;;;;;;;;;;5044644;28;20483;-81
2023/11/02 06:40:27;;;;;;;6.05;5.55;;;;;;;;;;5044622;28;20447;-81
2023/11/02 06:42:56;;;;;;;5.63;5.22;;;;;;;;;;5026715;28;20888;-81
2023/11/02 06:45:22;;;;;;;5.68;5.18;;;;;;;;;;5034876;28;20392;-80
2023/11/02 06:47:48;;;;;;;5.70;5.28;;;;;;;;;;5039751;28;20423;-81
2023/11/02 06:50:14;;;;;;;5.30;4.80;;;;;;;;;;5032729;28;20403;-81
2023/11/02 06:52:40;;;;;;;6.45;5.88;;;;;;;;;;5020918;28;20395;-80
2023/11/02 06:55:06;;;;;;;6.95;6.45;;;;;;;;;;5029829;28;20392;-80
2023/11/02 06:57:32;;;;;;;6.05;5.55;;;;;;;;;;5039760;28;20399;-80
2023/11/02 06:59:58;;;;;;;6.30;5.80;;;;;;;;;;5042918;28;20406;-80
2023/11/02 07:02:24;;;;;;;6.13;5.63;;;;;;;;;;5041634;28;20447;-80
2023/11/02 07:04:55;;;;;;;6.30;5.75;;;;;;;;;;5043778;28;20844;-80
2023/11/02 07:07:21;;;;;;;6.68;6.18;;;;;;;;;;5025519;28;20923;-81
2023/11/02 07:09:51;;;;;;;6.20;5.63;;;;;;;;;;5042539;28;20403;-80
2023/11/02 07:12:17;;;;;;;6.70;6.00;;;;;;;;;;5029207;28;20409;-81
2023/11/02 07:14:43;;;;;;;6.78;6.15;;;;;;;;;;5041487;28;20876;-81
2023/11/02 07:17:09;;;;;;;6.75;6.10;;;;;;;;;;5043770;28;20418;-81
2023/11/02 07:19:35;;;;;;;8.90;8.05;;;;;;;;;;5039433;28;20475;-82
2023/11/02 07:22:02;;;;;;;12.63;11.10;;;;;;;;;;5040738;28;20872;-82
2023/11/02 07:24:27;;;;;;;13.07;11.77;;;;;;;;;;5029397;28;20447;-82
2023/11/02 07:26:54;;;;;;;11.93;10.75;;;;;;;;;;5020195;28;20393;-82
2023/11/02 07:29:20;;;;;;;10.73;9.63;;;;;;;;;;5006846;28;20402;-82
2023/11/02 07:31:47;;;;;;;11.23;10.13;;;;;;;;;;5039508;28;20386;-82
2023/11/02 07:34:13;;;;;;;10.57;9.47;;;;;;;;;;5040657;28;20738;-83
2023/11/02 07:36:39;;;;;;;9.68;8.70;;;;;;;;;;5039807;28;20832;-83
2023/11/02 07:39:05;;;;;;;10.00;9.10;;;;;;;;;;5022896;28;20410;-82
2023/11/02 07:41:31;;;;;;;9.85;8.95;;;;;;;;;;5043845;28;20477;-83
2023/11/02 07:43:57;;;;;;;10.37;9.33;;;;;;;;;;5023208;28;20403;-83
2023/11/02 07:46:23;;;;;;;10.25;9.30;;;;;;;;;;5038388;28;20399;-83
2023/11/02 07:48:49;;;;;;;11.68;9.38;;;;;;;;;;5035510;28;20450;-82
2023/11/02 07:51:16;;;;;;;9.60;8.73;;;;;;;;;;5033945;28;20400;-83
2023/11/02 07:53:42;;;;;;;9.17;8.30;;;;;;;;;;5013797;28;20383;-83
2023/11/02 07:56:12;;;;;;;11.63;10.05;;;;;;;;;;5037097;28;20422;-82
2023/11/02 07:58:44;;;;;;;11.30;10.30;;;;;;;;;;5022045;28;20435;-84
2023/11/02 08:01:10;;;;;;;10.20;9.18;;;;;;;;;;5035790;28;20376;-82
2023/11/02 08:03:36;;;;;;;10.90;9.80;;;;;;;;;;5031673;28;20401;-83
2023/11/02 08:06:02;;;;;;;9.90;9.00;;;;;;;;;;5039772;28;20384;-82
2023/11/02 08:08:28;;;;;;;9.75;8.88;;;;;;;;;;5038334;28;20518;-82
2023/11/02 08:10:55;;;;;;;9.38;8.38;;;;;;;;;;5040384;28;20383;-83
2023/11/02 08:13:21;;;;;;;8.48;7.65;;;;;;;;;;5035786;28;20879;-83
2023/11/02 08:15:47;;;;;;;7.97;7.18;;;;;;;;;;5039052;28;20395;-83
2023/11/02 08:18:13;;;;;;;7.72;7.05;;;;;;;;;;5030626;28;20397;-82
2023/11/02 08:20:39;;;;;;;8.13;7.33;;;;;;;;;;5036029;28;20383;-83
2023/11/02 08:23:05;;;;;;;7.70;6.90;;;;;;;;;;5007569;28;20393;-82
2023/11/02 08:25:32;;;;;;;8.70;8.00;;;;;;;;;;5024495;28;20395;-83
2023/11/02 08:27:58;;;;;;;7.30;6.70;;;;;;;;;;5037999;28;20864;-82
2023/11/02 08:30:24;;;;;;;8.98;6.50;;;;;;;;;;5009668;28;20396;-82
2023/11/02 08:32:51;;;;;;;6.85;6.35;;;;;;;;;;5039160;28;20414;-83
2023/11/02 08:35:18;;;;;;;6.77;6.27;;;;;;;;;;5040555;28;20383;-83
2023/11/02 08:37:44;;;;;;;7.03;6.38;;;;;;;;;;5040757;28;20796;-83
2023/11/02 08:40:11;;;;;;;7.20;6.60;;;;;;;;;;5040775;28;20430;-83
2023/11/02 08:42:37;;;;;;;9.70;8.63;;;;;;;;;;5040691;28;20892;-82
2023/11/02 08:45:03;;;;;;;9.18;8.27;;;;;;;;;;5041437;28;20383;-83
2023/11/02 08:47:30;;;;;;;9.20;8.30;;;;;;;;;;5040398;28;20803;-82
2023/11/02 08:49:56;;;;;;;9.13;8.32;;;;;;;;;;5039158;28;20402;-83
2023/11/02 08:52:22;;;;;;;9.48;8.68;;;;;;;;;;5040261;28;20474;-83
2023/11/02 08:54:51;;;;;;;9.82;8.93;;;;;;;;;;5029235;28;20798;-83
2023/11/02 08:57:17;;;;;;;9.50;8.60;;;;;;;;;;5025783;28;20393;-83
2023/11/02 08:59:43;;;;;;;10.10;9.17;;;;;;;;;;5036731;28;20383;-83
2023/11/02 09:02:10;;;;;;;9.68;8.70;;;;;;;;;;5041228;28;20383;-83
2023/11/02 09:04:36;;;;;;;9.30;8.50;;;;;;;;;;5042224;28;20391;-83
2023/11/02 09:07:02;;;;;;;9.05;8.23;;;;;;;;;;5041673;28;20798;-83
2023/11/02 09:09:28;;;;;;;8.90;8.03;;;;;;;;;;5042649;28;20398;-83
2023/11/02 09:11:55;;;;;;;7.53;6.82;;;;;;;;;;5038311;28;20390;-84
2023/11/02 09:14:21;;;;;;;7.00;6.30;;;;;;;;;;5033090;28;20399;-81
2023/11/02 09:16:47;;;;;;;6.50;5.90;;;;;;;;;;5038072;28;20389;-81
2023/11/02 09:19:13;;;;;;;6.20;5.70;;;;;;;;;;5036915;28;20861;-82
2023/11/02 09:21:39;;;;;;;6.80;6.23;;;;;;;;;;5039558;28;20464;-81
2023/11/02 09:24:06;;;;;;;6.95;6.35;;;;;;;;;;5037148;28;20845;-82
2023/11/02 09:26:32;;;;;;;8.20;7.50;;;;;;;;;;5036302;28;20967;-81
2023/11/02 09:28:59;;;;;;;9.10;8.30;;;;;;;;;;5037396;28;20407;-82
2023/11/02 09:31:29;;;;;;;9.82;8.82;;;;;;;;;;5037820;28;20445;-81
2023/11/02 09:34:00;;;;;;;10.43;9.50;;;;;;;;;;5038136;28;20776;-82
2023/11/02 09:36:26;;;;;;;12.10;10.95;;;;;;;;;;5038432;28;20414;-81
2023/11/02 09:38:52;;;;;;;11.50;10.07;;;;;;;;;;5040217;28;20387;-82
2023/11/02 09:41:18;;;;;;;10.88;9.88;;;;;;;;;;5043200;28;20848;-81
2023/11/02 09:43:45;;;;;;;10.80;9.80;;;;;;;;;;5043866;28;20903;-82
2023/11/02 09:46:12;;;;;;;7.68;6.95;;;;;;;;;;5048714;28;20387;-82
2023/11/02 09:48:39;;;;;;;5.78;5.28;;;;;;;;;;5050035;28;20446;-82
2023/11/02 09:51:07;;;;;;;2.30;2.10;;;;;;;;;;5049990;28;20401;-82
2023/11/02 09:53:33;;;;;;;2.10;1.60;;;;;;;;;;5034366;28;20379;-82
2023/11/02 09:56:00;;;;;;;1.80;1.30;;;;;;;;;;5045853;28;20407;-82
2023/11/02 09:58:26;;;;;;;1.67;1.52;;;;;;;;;;5031968;28;20385;-82
2023/11/02 10:00:52;;;;;;;1.70;1.55;;;;;;;;;;5047357;28;20386;-82
2023/11/02 10:03:18;;;;;;;1.40;1.25;;;;;;;;;;5050928;28;20417;-82
2023/11/02 10:05:45;;;;;;;2.58;1.80;;;;;;;;;;5052675;28;20771;-82
2023/11/02 10:08:12;;;;;;;2.30;2.10;;;;;;;;;;5053297;28;20411;-81
2023/11/02 10:10:38;;;;;;;1.77;1.67;;;;;;;;;;5051914;28;20391;-83
2023/11/02 10:13:04;;;;;;;1.95;1.60;;;;;;;;;;5047634;28;20383;-82
2023/11/02 10:15:31;;;;;;;2.08;1.05;;;;;;;;;;5049380;28;20394;-84
2023/11/02 10:18:00;;;;;;;1.00;0.65;;;;;;;;;;5020094;28;20389;-84
2023/11/02 10:20:26;;;;;;;1.35;0.80;;;;;;;;;;5047389;28;20474;-84
2023/11/02 10:22:59;;;;;;;1.50;0.50;;;;;;;;;;5046141;28;20421;-83
2023/11/02 10:25:27;;;;;;;1.38;0.60;;;;;;;;;;5050608;28;20379;-82
2023/11/02 10:27:53;;;;;;;1.15;0.40;;;;;;;;;;5043413;28;20459;-81
2023/11/02 10:30:20;;;;;;;0.50;0.30;;;;;;;;;;5043967;28;20404;-83
2023/11/02 10:32:47;;;;;;;1.48;0.70;;;;;;;;;;5054280;28;20444;-83
2023/11/02 10:35:13;;;;;;;1.52;0.40;;;;;;;;;;5048050;28;20462;-83
2023/11/02 10:37:39;;;;;;;1.85;0.43;;;;;;;;;;5028565;28;20423;-83
2023/11/02 10:40:06;;;;;;;0.50;0.30;;;;;;;;;;5042988;28;20458;-84
2023/11/02 10:42:32;;;;;;;0.80;0.30;;;;;;;;;;5046818;28;20383;-83
2023/11/02 10:44:59;;;;;;;0.70;0.47;;;;;;;;;;5052274;28;20413;-84
2023/11/02 10:47:27;;;;;;;0.85;0.40;;;;;;;;;;5033019;28;20419;-85
2023/11/02 10:49:57;;;;;;;1.00;0.50;;;;;;;;;;5033952;28;20406;-84
2023/11/02 10:52:29;;;;;;;1.42;0.60;;;;;;;;;;5058390;23;21100;-83
2023/11/02 10:55:07;;;;;;;1.13;0.65;;;;;;;;;;5060892;28;20385;-80
2023/11/02 10:57:34;;;;;;;1.30;0.70;;;;;;;;;;5046204;28;20379;-81
2023/11/02 11:00:04;;;;;;;1.33;0.70;;;;;;;;;;5043032;28;20415;-80
2023/11/02 11:02:31;;;;;;;1.30;0.50;;;;;;;;;;5039731;28;20449;-80
2023/11/02 11:04:59;;;;;;;1.00;0.52;;;;;;;;;;5024085;28;20403;-80
2023/11/02 11:07:25;;;;;;;1.33;0.70;;;;;;;;;;5043123;28;20465;-80
2023/11/02 11:09:52;;;;;;;2.58;1.10;;;;;;;;;;5022566;28;20403;-81
2023/11/02 11:12:19;;;;;;;0.90;0.75;;;;;;;;;;5037455;28;20733;-80
2023/11/02 11:14:48;;;;;;;1.70;0.93;;;;;;;;;;5041067;28;20378;-80
2023/11/02 11:17:14;;;;;;;1.20;0.90;;;;;;;;;;5037038;28;20382;-80
2023/11/02 11:19:41;;;;;;;1.92;0.70;;;;;;;;;;5037002;28;20450;-81
2023/11/02 11:22:08;;;;;;;0.95;0.50;;;;;;;;;;5040675;28;20450;-81
2023/11/02 11:24:34;;;;;;;1.17;0.80;;;;;;;;;;5041200;28;20820;-81
2023/11/02 11:27:02;;;;;;;0.98;0.60;;;;;;;;;;5041973;28;20446;-81
2023/11/02 11:29:45;;;;;;;1.23;0.40;;;;;;;;;;5039990;28;20391;-81
2023/11/02 11:32:27;;;;;;;1.10;0.70;;;;;;;;;;5032811;28;20385;-81
2023/11/02 11:34:56;;;;;;;0.98;0.57;;;;;;;;;;5039455;28;20415;-81
2023/11/02 11:37:34;;;;;;;0.80;0.70;;;;;;;;;;5043442;28;20391;-82
2023/11/02 11:40:05;;;;;;;0.77;0.57;;;;;;;;;;5042546;28;20578;-81
2023/11/02 11:42:50;;;;;;;1.23;0.80;;;;;;;;;;5041072;28;20390;-81
2023/11/02 11:45:35;;;;;;;1.10;0.90;;;;;;;;;;5042488;28;20379;-81
2023/11/02 11:48:02;;;;;;;1.77;0.70;;;;;;;;;;5039946;28;20419;-81
2023/11/02 11:50:31;;;;;;;1.50;0.95;;;;;;;;;;5042170;28;20383;-81
2023/11/02 11:53:16;;;;;;;1.20;0.80;;;;;;;;;;5042392;28;20398;-81
2023/11/02 11:55:43;;;;;;;2.13;0.90;;;;;;;;;;5042736;28;20843;-81
2023/11/02 11:58:10;;;;;;;1.42;0.80;;;;;;;;;;5036045;28;20396;-81
2023/11/02 12:00:37;;;;;;;1.00;0.90;;;;;;;;;;5036844;28;20435;-81
2023/11/02 12:03:06;;;;;;;1.25;0.90;;;;;;;;;;5041031;28;20383;-81
2023/11/02 12:05:44;;;;;;;3.60;3.30;;;;;;;;;;5041464;28;20391;-81
2023/11/02 12:08:13;;;;;;;0.80;0.70;;;;;;;;;;5041561;28;20422;-81
2023/11/02 12:10:59;;;;;;;1.20;0.80;;;;;;;;;;5042346;28;20470;-81
2023/11/02 12:13:26;;;;;;;1.20;0.90;;;;;;;;;;5044394;28;20387;-81
2023/11/02 12:15:57;;;;;;;1.13;0.98;;;;;;;;;;5026385;28;20482;-81
2023/11/02 12:18:24;;;;;;;0.70;0.65;;;;;;;;;;5036579;28;20470;-81
2023/11/02 12:20:50;;;;;;;0.82;0.63;;;;;;;;;;5034255;28;20395;-81
2023/11/02 12:23:16;;;;;;;1.88;0.80;;;;;;;;;;5018828;28;20393;-81
2023/11/02 12:25:42;;;;;;;1.50;0.90;;;;;;;;;;5031543;28;20459;-81
2023/11/02 12:28:11;;;;;;;1.40;0.97;;;;;;;;;;5037086;28;20513;-81
2023/11/02 12:30:44;;;;;;;1.75;1.10;;;;;;;;;;5036166;28;20394;-81
2023/11/02 12:33:11;;;;;;;1.40;1.25;;;;;;;;;;5038058;28;20395;-81
2023/11/02 12:35:37;;;;;;;1.83;1.50;;;;;;;;;;5027265;28;20491;-81
2023/11/02 12:38:06;;;;;;;2.13;1.73;;;;;;;;;;5029882;28;20395;-81
2023/11/02 12:40:51;;;;;;;1.85;1.40;;;;;;;;;;5031512;28;20386;-81
2023/11/02 12:43:21;;;;;;;1.75;1.58;;;;;;;;;;5029808;28;20389;-81
2023/11/02 12:45:54;;;;;;;2.45;1.70;;;;;;;;;;5030650;28;20848;-81
2023/11/02 12:48:30;;;;;;;1.33;1.02;;;;;;;;;;5038015;28;20423;-81
2023/11/02 12:50:56;;;;;;;1.27;0.90;;;;;;;;;;5031406;28;20848;-81
2023/11/02 12:53:30;;;;;;;1.45;1.05;;;;;;;;;;5037077;28;20429;-81
2023/11/02 12:55:58;;;;;;;2.53;2.33;;;;;;;;;;5022546;28;20469;-81
2023/11/02 12:58:24;;;;;;;1.85;1.60;;;;;;;;;;5035102;28;20384;-81
2023/11/02 13:00:59;;;;;;;1.55;1.35;;;;;;;;;;5037478;28;20425;-81
2023/11/02 13:03:26;;;;;;;0.95;0.85;;;;;;;;;;5039131;28;20383;-81
2023/11/02 13:05:52;;;;;;;1.20;1.00;;;;;;;;;;5038743;28;20391;-81
2023/11/02 13:08:24;;;;;;;1.25;0.80;;;;;;;;;;5038707;28;20419;-81
2023/11/02 13:10:51;;;;;;;0.95;0.70;;;;;;;;;;5039129;28;20753;-83
2023/11/02 13:13:20;;;;;;;1.20;0.80;;;;;;;;;;5021123;28;20485;-81
2023/11/02 13:15:47;;;;;;;0.87;0.77;;;;;;;;;;5021238;28;20424;-81
2023/11/02 13:18:13;;;;;;;1.63;0.90;;;;;;;;;;5036294;28;20381;-81
2023/11/02 13:20:39;;;;;;;1.50;0.98;;;;;;;;;;5025279;28;20392;-81
2023/11/02 13:23:07;;;;;;;1.37;1.10;;;;;;;;;;5025203;28;20395;-81
2023/11/02 13:25:33;;;;;;;1.67;0.93;;;;;;;;;;5036512;28;20391;-81
2023/11/02 13:27:59;;;;;;;1.58;1.10;;;;;;;;;;5038924;28;20461;-81
2023/11/02 13:30:28;;;;;;;1.60;0.90;;;;;;;;;;5033270;28;20456;-81
2023/11/02 13:32:54;;;;;;;1.00;0.80;;;;;;;;;;5022484;28;20398;-81
2023/11/02 13:35:24;;;;;;;1.00;0.70;;;;;;;;;;5019883;28;20396;-81
2023/11/02 13:37:50;;;;;;;1.52;1.00;;;;;;;;;;5023597;28;20407;-81
2023/11/02 13:40:26;;;;;;;1.60;1.17;;;;;;;;;;5037569;28;20378;-81
2023/11/02 13:42:52;;;;;;;3.65;1.80;;;;;;;;;;5034347;28;20398;-81
2023/11/02 13:45:18;;;;;;;1.33;1.13;;;;;;;;;;5038911;28;20374;-81
2023/11/02 13:47:45;;;;;;;1.38;1.00;;;;;;;;;;5035805;28;20411;-82
2023/11/02 13:50:11;;;;;;;1.00;0.90;;;;;;;;;;5039437;28;20386;-82
2023/11/02 13:52:37;;;;;;;1.10;0.85;;;;;;;;;;5033603;28;20407;-81
2023/11/02 13:55:05;;;;;;;1.00;0.75;;;;;;;;;;5032317;28;20389;-81
2023/11/02 13:57:32;;;;;;;0.90;0.70;;;;;;;;;;5022064;28;20499;-81
2023/11/02 14:00:00;;;;;;;1.73;1.10;;;;;;;;;;5037277;28;20395;-81
2023/11/02 14:02:27;;;;;;;2.28;1.55;;;;;;;;;;5040488;28;20421;-81
2023/11/02 14:04:53;;;;;;;2.92;1.70;;;;;;;;;;5040503;28;20395;-81
2023/11/02 14:07:22;;;;;;;3.42;1.38;;;;;;;;;;5039184;28;20424;-81
2023/11/02 14:09:48;;;;;;;1.40;1.30;;;;;;;;;;5039721;28;20431;-81
2023/11/02 14:12:22;;;;;;;2.40;1.50;;;;;;;;;;5036463;28;20393;-82
2023/11/02 14:14:49;;;;;;;1.50;1.30;;;;;;;;;;5038817;28;20399;-82
2023/11/02 14:17:15;;;;;;;2.80;1.92;;;;;;;;;;5034760;28;20434;-82
2023/11/02 14:19:41;;;;;;;3.53;2.07;;;;;;;;;;5036755;28;20454;-82
2023/11/02 14:22:07;;;;;;;3.03;2.30;;;;;;;;;;5029054;28;20392;-82
2023/11/02 14:24:34;;;;;;;1.40;1.27;;;;;;;;;;5038692;28;20795;-82
2023/11/02 14:27:00;;;;;;;2.10;1.40;;;;;;;;;;5042641;28;20391;-82
2023/11/02 14:29:26;;;;;;;7.90;3.65;;;;;;;;;;5043424;28;20446;-82
2023/11/02 14:31:53;;;;;;;6.25;2.75;;;;;;;;;;5041784;28;20426;-83
2023/11/02 14:34:20;;;;;;;3.00;1.93;;;;;;;;;;5032800;28;20446;-83
2023/11/02 14:36:46;;;;;;;6.32;3.65;;;;;;;;;;5033165;28;20830;-83
2023/11/02 14:39:14;;;;;;;23.65;10.65;;;;;;;;;;5027072;28;20420;-83
2023/11/02 14:41:40;;;;;;;21.58;9.77;;;;;;;;;;5026350;28;20387;-82
2023/11/02 14:44:06;;;;;;;11.30;6.10;;;;;;;;;;5025120;28;20389;-82
2023/11/02 14:46:32;;;;;;;4.50;2.63;;;;;;;;;;5024633;28;20392;-83
2023/11/02 14:48:58;;;;;;;1.40;0.98;;;;;;;;;;5040179;28;20419;-83